Long Lake, Indiana
Current Conditions -  °F | °C
As of 3:35 AM on Sunday 23 Nov 2014 (Local Time) from KANQ Reporting Station
Overcast Overcast  
Wind Chill: 41°   Ceiling: 2400
Heat Index: 46°   Visibility: 10mi
Dew Point: 43°   Wind: 12mph
Humidity: 87%   Direction: 220°SW
Pressure: 29.93"   Gusts: NA
Location:  41.7284°N, 84.9169°W
Report Text: KANQ 230835Z AUTO 22010KT 10SM BKN024 BKN030 OVC037 08/06 A2993 RMK
Loading
Personal Weather Stations






























Interactive Weather Map New forecast layout! Learn more

10-Day Weather Forecast

Advertisements
Track Severe Weather on mobile